< Cyclone 195810 1958 Season Cyclone 195812 >
Cyclone 195811 (unnamed)
General InformationTrack Information on Google Maps || ResourceGoogle EarthGE AnimationAtom FeedGeoJSON
Detalied Best Track (Time Zone = UTC)
Year Month Day Hour Lat. Long. Pressure (hPa) Wind (kt) Class Image Chart
1958 3 11 05 -12.5 174.5 1001 0 0 -- --
1958 3 11 17 -11.9 175.6 1001 0 0 -- --
1958 3 12 17 -13.6 176.0 1000 0 0 -- --
1958 3 13 05 -14.9 177.0 1000 0 0 -- --
1958 3 13 11 -15.9 176.0 999 0 0 -- --
1958 3 14 05 -16.9 176.0 996 0 0 -- --
1958 3 14 23 -17.9 175.0 998 0 0 -- --
1958 3 15 05 -18.9 173.0 998 0 0 -- --
1958 3 15 17 -20.9 173.4 999 0 0 -- --
1958 3 16 05 -22.7 174.0 999 0 0 -- --
1958 3 16 11 -23.8 174.3 999 0 0 -- --
1958 3 17 05 -21.4 172.9 999 0 0 -- --
1958 3 17 17 -21.9 171.0 1000 0 0 -- --
1958 3 17 23 -22.9 171.0 1000 0 0 -- --
1958 3 18 11 -21.9 171.5 1001 0 0 -- --
1958 3 18 17 -18.9 155.0 1000 0 0 -- --
1958 3 18 23 -18.9 155.5 998 0 0 -- --
1958 3 19 05 -18.9 155.3 997 0 0 -- --
1958 3 19 11 -18.9 155.0 998 0 0 -- --
1958 3 19 17 -18.9 155.0 1000 0 0 -- --
1958 3 19 23 -18.5 155.4 1002 0 0 -- --
< Cyclone 195810 1958 Season Cyclone 195812 >

Help